Fairchild Air Force Base, Washington
Current Conditions -  °F | °C
As of 1:36 PM on Saturday 22 Nov 2014 (Local Time) from KSKA Reporting Station
Scattered Clouds Scattered Clouds  
Wind Chill: 29°   Ceiling: Unl
Heat Index: 37°   Visibility: 10mi
Dew Point: 32°   Wind: 13mph
Humidity: 81%   Direction: 220°SW
Pressure: 29.7"   Gusts: NA
Location:  47.6332°N, 117.6546°W
Report Text: KSKA 222136Z AUTO 22011KT 10SM SCT110 03/00 A2970 RMK AO2
Loading
Personal Weather Stations






























Interactive Weather Map New forecast layout! Learn more

10-Day Weather Forecast

Advertisements
Track Severe Weather on mobile